createdAt,value
2023-07-03T00:01:42.354Z,3.10
2023-07-03T00:04:12.134Z,2.80
2023-07-03T00:06:40.345Z,3.08
2023-07-03T00:09:10.652Z,2.53
2023-07-03T00:11:39.856Z,2.28
2023-07-03T00:14:09.972Z,2.67
2023-07-03T00:16:38.023Z,2.22
2023-07-03T00:19:07.319Z,2.15
2023-07-03T00:21:44.595Z,2.33
2023-07-03T00:24:13.126Z,2.72
2023-07-03T00:26:42.213Z,2.35
2023-07-03T00:29:12.458Z,2.15
2023-07-03T00:31:40.460Z,2.03
2023-07-03T00:34:08.494Z,2.00
2023-07-03T00:36:36.448Z,2.40
2023-07-03T00:39:05.811Z,2.35
2023-07-03T00:41:35.588Z,2.30
2023-07-03T00:44:04.123Z,2.40
2023-07-03T00:49:01.781Z,2.40
2023-07-03T00:51:29.888Z,4.75
2023-07-03T00:53:57.894Z,2.10
2023-07-03T00:56:25.922Z,2.22
2023-07-03T00:58:53.969Z,2.67
2023-07-03T01:01:29.277Z,2.60
2023-07-03T01:04:04.931Z,1.85
2023-07-03T01:06:41.980Z,2.30
2023-07-03T01:09:17.326Z,2.08
2023-07-03T01:11:48.234Z,2.22
2023-07-03T01:14:19.690Z,2.05
2023-07-03T01:16:52.283Z,2.15
2023-07-03T01:19:30.437Z,2.17
2023-07-03T01:22:06.824Z,2.30
2023-07-03T01:24:42.635Z,2.40
2023-07-03T01:27:14.901Z,1.80
2023-07-03T01:29:47.930Z,2.08
2023-07-03T01:32:16.775Z,1.58
2023-07-03T01:34:51.142Z,1.63
2023-07-03T01:37:23.759Z,1.88
2023-07-03T01:39:57.244Z,1.58
2023-07-03T01:42:27.961Z,1.83
2023-07-03T01:44:57.898Z,2.00
2023-07-03T01:47:25.932Z,1.60
2023-07-03T01:49:54.073Z,1.50
2023-07-03T01:52:26.408Z,2.20
2023-07-03T01:55:04.829Z,1.60
2023-07-03T01:57:41.390Z,2.00
2023-07-03T02:00:15.665Z,2.10
2023-07-03T02:02:50.947Z,1.83
2023-07-03T02:05:23.883Z,1.65
2023-07-03T02:08:00.745Z,1.50
2023-07-03T02:10:30.227Z,1.48
2023-07-03T02:12:58.215Z,1.80
2023-07-03T02:15:26.482Z,1.55
2023-07-03T02:17:57.158Z,1.70
2023-07-03T02:20:25.405Z,1.65
2023-07-03T02:22:53.435Z,1.40
2023-07-03T02:25:21.645Z,1.63
2023-07-03T02:27:51.563Z,1.70
2023-07-03T02:30:19.638Z,1.80
2023-07-03T02:32:48.065Z,1.55
2023-07-03T02:35:16.286Z,1.30
2023-07-03T02:37:44.462Z,1.30
2023-07-03T02:40:14.791Z,1.40
2023-07-03T02:42:43.147Z,1.20
2023-07-03T02:45:13.072Z,1.27
2023-07-03T02:47:41.127Z,1.35
2023-07-03T02:50:09.982Z,1.25
2023-07-03T02:52:38.553Z,1.40
2023-07-03T02:57:34.779Z,1.70
2023-07-03T03:00:07.102Z,1.15
2023-07-03T03:02:36.813Z,1.30
2023-07-03T03:05:05.084Z,1.35
2023-07-03T03:07:33.207Z,1.30
2023-07-03T03:10:01.203Z,1.10
2023-07-03T03:12:29.205Z,1.40
2023-07-03T03:14:57.482Z,1.35
2023-07-03T03:17:25.500Z,1.30
2023-07-03T03:19:54.895Z,1.30
2023-07-03T03:22:22.905Z,1.60
2023-07-03T03:24:50.901Z,1.17
2023-07-03T03:27:20.092Z,1.42
2023-07-03T03:29:49.399Z,1.15
2023-07-03T03:32:17.370Z,1.38
2023-07-03T03:34:45.396Z,1.45
2023-07-03T03:37:14.743Z,1.40
2023-07-03T03:39:42.758Z,1.20
2023-07-03T03:42:11.509Z,1.40
2023-07-03T03:44:39.862Z,1.33
2023-07-03T03:47:08.194Z,1.30
2023-07-03T03:49:36.221Z,1.20
2023-07-03T03:52:04.480Z,1.40
2023-07-03T03:54:34.240Z,1.40
2023-07-03T03:57:02.233Z,1.23
2023-07-03T03:59:30.430Z,1.35
2023-07-03T04:01:58.503Z,1.00
2023-07-03T04:04:26.668Z,1.42
2023-07-03T04:06:54.830Z,1.17
2023-07-03T04:09:22.857Z,1.35
2023-07-03T04:11:52.240Z,1.20
2023-07-03T04:14:20.195Z,1.40
2023-07-03T04:16:48.881Z,1.20
2023-07-03T04:19:19.902Z,1.30
2023-07-03T04:21:55.301Z,1.33
2023-07-03T04:24:23.387Z,1.27
2023-07-03T04:26:55.425Z,1.20
2023-07-03T04:29:23.848Z,1.02
2023-07-03T04:31:51.900Z,1.27
2023-07-03T04:34:22.701Z,1.35
2023-07-03T04:36:51.054Z,1.38
2023-07-03T04:39:19.072Z,1.70
2023-07-03T04:41:47.059Z,1.10
2023-07-03T04:44:16.421Z,1.17
2023-07-03T04:46:45.097Z,1.00
2023-07-03T04:49:13.573Z,1.25
2023-07-03T04:51:42.895Z,1.23
2023-07-03T04:54:10.946Z,1.10
2023-07-03T04:56:38.960Z,1.17
2023-07-03T04:59:06.896Z,1.20
2023-07-03T05:01:36.292Z,1.20
2023-07-03T05:04:04.669Z,1.10
2023-07-03T05:06:32.672Z,1.20
2023-07-03T05:09:00.630Z,1.50
2023-07-03T05:11:28.666Z,1.40
2023-07-03T05:13:56.641Z,1.13
2023-07-03T05:16:25.200Z,1.30
2023-07-03T05:21:25.415Z,1.63
2023-07-03T05:23:53.371Z,1.75
2023-07-03T05:26:25.774Z,1.50
2023-07-03T05:28:53.769Z,1.25
2023-07-03T05:31:24.666Z,1.40
2023-07-03T05:33:54.253Z,1.25
2023-07-03T05:36:22.315Z,1.23
2023-07-03T05:38:50.496Z,1.15
2023-07-03T05:41:18.445Z,1.00
2023-07-03T05:43:46.472Z,1.40
2023-07-03T05:46:14.417Z,1.15
2023-07-03T05:48:42.574Z,1.10
2023-07-03T05:51:13.375Z,1.13
2023-07-03T05:53:41.314Z,1.48
2023-07-03T05:56:09.585Z,1.27
2023-07-03T05:58:37.529Z,1.33
2023-07-03T06:01:10.317Z,1.23
2023-07-03T06:03:38.465Z,1.20
2023-07-03T06:06:07.425Z,1.52
2023-07-03T06:08:37.063Z,1.75
2023-07-03T06:11:05.096Z,1.00
2023-07-03T06:13:33.061Z,1.23
2023-07-03T06:16:01.076Z,1.30
2023-07-03T06:18:29.153Z,1.50
2023-07-03T06:20:57.195Z,1.27
2023-07-03T06:23:25.299Z,1.17
2023-07-03T06:26:02.141Z,1.50
2023-07-03T06:28:30.213Z,1.40
2023-07-03T06:30:58.186Z,1.30
2023-07-03T06:33:26.150Z,1.20
2023-07-03T06:35:54.400Z,1.25
2023-07-03T06:38:22.838Z,1.30
2023-07-03T06:41:01.534Z,1.40
2023-07-03T06:43:29.514Z,1.20
2023-07-03T06:45:58.619Z,1.30
2023-07-03T06:48:27.062Z,1.15
2023-07-03T06:51:03.455Z,1.30
2023-07-03T06:53:31.492Z,1.50
2023-07-03T06:56:02.048Z,1.08
2023-07-03T06:58:34.776Z,1.15
2023-07-03T07:01:08.159Z,1.20
2023-07-03T07:03:36.943Z,1.17
2023-07-03T07:06:10.604Z,1.33
2023-07-03T07:08:38.791Z,1.52
2023-07-03T07:11:11.961Z,1.23
2023-07-03T07:13:45.140Z,1.25
2023-07-03T07:16:14.889Z,1.38
2023-07-03T07:18:45.266Z,1.25
2023-07-03T07:21:13.313Z,1.33
2023-07-03T07:23:42.431Z,1.33
2023-07-03T07:26:11.836Z,1.25
2023-07-03T07:28:39.809Z,1.30
2023-07-03T07:31:07.803Z,1.50
2023-07-03T07:33:35.825Z,1.30
2023-07-03T07:36:03.876Z,1.17
2023-07-03T07:38:31.845Z,1.30
2023-07-03T07:41:04.078Z,1.35
2023-07-03T07:43:33.579Z,1.40
2023-07-03T07:46:01.577Z,1.42
2023-07-03T07:48:32.001Z,1.40
2023-07-03T07:51:01.850Z,1.27
2023-07-03T07:53:31.844Z,1.38
2023-07-03T07:56:00.302Z,1.30
2023-07-03T07:58:28.425Z,1.70
2023-07-03T08:00:59.097Z,1.67
2023-07-03T08:03:27.808Z,1.25
2023-07-03T08:05:58.273Z,1.38
2023-07-03T08:08:27.457Z,0.98
2023-07-03T08:10:55.772Z,1.52
2023-07-03T08:13:24.650Z,1.40
2023-07-03T08:15:53.764Z,1.30
2023-07-03T08:18:23.915Z,1.38
2023-07-03T08:20:52.644Z,1.40
2023-07-03T08:23:21.123Z,1.50
2023-07-03T08:25:51.500Z,1.27
2023-07-03T08:28:20.760Z,1.35
2023-07-03T08:30:48.853Z,1.48
2023-07-03T08:33:17.955Z,1.23
2023-07-03T08:38:18.851Z,1.40
2023-07-03T08:40:46.939Z,1.40
2023-07-03T08:43:21.375Z,1.15
2023-07-03T08:45:52.110Z,1.45
2023-07-03T08:48:24.721Z,1.23
2023-07-03T08:50:56.889Z,1.70
2023-07-03T08:53:29.811Z,1.30
2023-07-03T08:56:04.479Z,1.25
2023-07-03T09:01:09.914Z,1.60
2023-07-03T09:03:51.985Z,1.50
2023-07-03T09:06:27.274Z,1.42
2023-07-03T09:09:05.440Z,1.38
2023-07-03T09:11:39.701Z,1.80
2023-07-03T09:14:12.887Z,1.50
2023-07-03T09:16:42.749Z,1.50
2023-07-03T09:19:17.628Z,1.52
2023-07-03T09:21:47.652Z,1.60
2023-07-03T09:24:23.443Z,1.60
2023-07-03T09:26:58.764Z,1.60
2023-07-03T09:29:28.500Z,1.38
2023-07-03T09:31:56.955Z,1.85
2023-07-03T09:34:25.940Z,1.40
2023-07-03T09:37:00.538Z,1.42
2023-07-03T09:39:28.878Z,1.50
2023-07-03T09:42:08.014Z,1.45
2023-07-03T09:44:42.942Z,1.80
2023-07-03T09:47:19.387Z,1.90
2023-07-03T09:49:47.459Z,1.80
2023-07-03T09:52:17.629Z,1.85
2023-07-03T09:54:51.022Z,1.88
2023-07-03T09:57:26.671Z,1.60
2023-07-03T09:59:56.239Z,1.50
2023-07-03T10:07:30.259Z,1.38
2023-07-03T10:12:35.631Z,1.50
2023-07-03T10:15:09.580Z,1.45
2023-07-03T10:17:42.124Z,1.60
2023-07-03T10:20:20.431Z,1.45
2023-07-03T10:22:50.869Z,1.15
2023-07-03T10:25:26.839Z,1.25
2023-07-03T10:27:59.053Z,1.20
2023-07-03T10:30:30.969Z,1.25
2023-07-03T10:33:05.968Z,1.33
2023-07-03T10:35:36.180Z,1.52
2023-07-03T10:38:16.321Z,1.27
2023-07-03T10:40:54.143Z,1.20
2023-07-03T10:43:26.542Z,1.10
2023-07-03T10:45:55.653Z,1.27
2023-07-03T10:48:27.783Z,1.17
2023-07-03T10:51:06.721Z,1.30
2023-07-03T10:53:45.837Z,1.25
2023-07-03T10:56:23.014Z,1.10
2023-07-03T10:58:58.525Z,0.95
2023-07-03T11:01:34.748Z,1.13
2023-07-03T11:04:23.868Z,1.48
2023-07-03T11:07:00.859Z,1.13
2023-07-03T11:09:40.042Z,1.10
2023-07-03T11:12:16.359Z,1.08
2023-07-03T11:14:52.219Z,1.15
2023-07-03T11:17:31.832Z,1.00
2023-07-03T11:20:07.443Z,1.20
2023-07-03T11:22:45.448Z,0.90
2023-07-03T11:25:22.611Z,0.90
2023-07-03T11:27:58.804Z,0.93
2023-07-03T11:30:27.335Z,1.23
2023-07-03T11:40:39.671Z,0.80
2023-07-03T11:46:07.619Z,1.00
2023-07-03T11:48:44.798Z,0.90
2023-07-03T11:51:16.117Z,0.98
2023-07-03T11:53:49.136Z,0.95
2023-07-03T11:56:50.421Z,1.10
2023-07-03T11:59:44.223Z,0.93
2023-07-03T12:02:53.153Z,0.80
2023-07-03T12:05:54.312Z,1.20
2023-07-03T12:08:49.289Z,1.10
2023-07-03T12:11:19.947Z,1.05
2023-07-03T12:13:53.996Z,1.10
2023-07-03T12:16:26.070Z,1.50
2023-07-03T12:19:08.881Z,1.17
2023-07-03T12:21:41.169Z,1.00
2023-07-03T12:24:25.059Z,1.10
2023-07-03T12:26:57.806Z,1.27
2023-07-03T12:29:25.806Z,1.20
2023-07-03T12:32:07.052Z,1.10
2023-07-03T12:34:37.827Z,1.30
2023-07-03T12:37:09.356Z,0.90
2023-07-03T12:39:37.777Z,1.10
2023-07-03T12:42:12.167Z,1.20
2023-07-03T12:44:40.298Z,1.10
2023-07-03T12:47:14.210Z,1.20
2023-07-03T12:49:57.430Z,1.08
2023-07-03T12:52:26.637Z,1.05
2023-07-03T12:55:09.382Z,1.42
2023-07-03T12:57:43.953Z,1.20
2023-07-03T13:00:18.036Z,1.10
2023-07-03T13:02:47.957Z,0.90
2023-07-03T13:05:22.937Z,1.20
2023-07-03T13:07:52.498Z,0.93
2023-07-03T13:10:22.223Z,1.27
2023-07-03T13:13:10.578Z,1.30
2023-07-03T13:15:40.221Z,1.13
2023-07-03T13:18:10.465Z,1.00
2023-07-03T13:20:39.111Z,0.93
2023-07-03T13:23:10.211Z,1.17
2023-07-03T13:25:41.251Z,1.20
2023-07-03T13:28:20.630Z,1.20
2023-07-03T13:31:08.136Z,1.17
2023-07-03T13:33:37.373Z,1.15
2023-07-03T13:36:21.337Z,1.00
2023-07-03T13:39:02.798Z,1.40
2023-07-03T13:41:31.185Z,1.10
2023-07-03T13:44:03.681Z,1.02
2023-07-03T13:46:32.192Z,1.10
2023-07-03T13:51:29.221Z,1.40
2023-07-03T13:54:11.254Z,1.10
2023-07-03T13:56:43.425Z,1.25
2023-07-03T13:59:17.956Z,1.10
2023-07-03T14:04:16.845Z,1.17
2023-07-03T14:09:16.979Z,0.98
2023-07-03T14:11:48.742Z,1.20
2023-07-03T14:14:20.916Z,1.20
2023-07-03T14:16:54.372Z,0.95
2023-07-03T14:19:31.073Z,0.90
2023-07-03T14:22:03.568Z,0.80
2023-07-03T14:24:35.329Z,0.80
2023-07-03T14:27:21.015Z,0.82
2023-07-03T14:29:50.377Z,0.80
2023-07-03T14:32:18.394Z,0.80
2023-07-03T14:34:47.869Z,0.85
2023-07-03T14:37:19.020Z,1.20
2023-07-03T14:39:47.056Z,0.70
2023-07-03T14:42:20.376Z,0.90
2023-07-03T14:44:48.729Z,1.00
2023-07-03T14:47:18.701Z,1.13
2023-07-03T14:49:49.632Z,1.05
2023-07-03T14:52:19.843Z,1.00
2023-07-03T14:54:48.525Z,0.98
2023-07-03T14:57:19.092Z,0.75
2023-07-03T14:59:51.091Z,0.90
2023-07-03T15:02:28.324Z,0.90
2023-07-03T15:04:59.369Z,0.90
2023-07-03T15:07:30.117Z,0.90
2023-07-03T15:09:58.157Z,1.08
2023-07-03T15:12:37.027Z,0.80
2023-07-03T15:15:10.696Z,0.93
2023-07-03T15:17:40.599Z,1.00
2023-07-03T15:20:10.032Z,0.80
2023-07-03T15:22:39.765Z,1.33
2023-07-03T15:25:08.340Z,0.90
2023-07-03T15:27:38.856Z,1.05
2023-07-03T15:30:07.985Z,1.00
2023-07-03T15:32:36.038Z,1.25
2023-07-03T15:35:06.071Z,1.20
2023-07-03T15:37:34.237Z,1.15
2023-07-03T15:40:05.080Z,0.90
2023-07-03T15:42:33.233Z,0.90
2023-07-03T15:45:02.565Z,0.90
2023-07-03T15:47:30.691Z,1.00
2023-07-03T15:49:58.826Z,1.20
2023-07-03T15:52:28.290Z,1.00
2023-07-03T15:54:56.410Z,1.25
2023-07-03T15:57:26.069Z,1.42
2023-07-03T15:59:54.616Z,1.20
2023-07-03T16:02:24.426Z,1.42
2023-07-03T16:04:52.829Z,1.38
2023-07-03T16:08:03.149Z,1.33
2023-07-03T16:13:24.590Z,0.85
2023-07-03T16:15:55.840Z,0.77
2023-07-03T16:18:23.858Z,0.80
2023-07-03T16:20:58.001Z,1.10
2023-07-03T16:25:58.052Z,1.33
2023-07-03T16:28:26.108Z,1.38
2023-07-03T16:33:29.628Z,1.30
2023-07-03T16:35:58.445Z,1.20
2023-07-03T16:38:28.400Z,1.10
2023-07-03T16:41:01.292Z,1.00
2023-07-03T16:43:30.744Z,0.93
2023-07-03T16:46:01.116Z,1.00
2023-07-03T16:48:30.387Z,1.30
2023-07-03T16:50:59.953Z,1.17
2023-07-03T16:53:30.590Z,1.10
2023-07-03T16:56:03.879Z,1.17
2023-07-03T16:58:32.511Z,1.20
2023-07-03T17:01:05.472Z,1.23
2023-07-03T17:03:34.185Z,1.30
2023-07-03T17:06:04.103Z,1.20
2023-07-03T17:08:33.933Z,1.20
2023-07-03T17:11:03.108Z,1.00
2023-07-03T17:13:31.568Z,1.35
2023-07-03T17:15:59.822Z,1.30
2023-07-03T17:18:29.591Z,1.90
2023-07-03T17:20:57.578Z,1.63
2023-07-03T17:23:25.669Z,1.60
2023-07-03T17:25:56.618Z,1.88
2023-07-03T17:28:24.989Z,1.40
2023-07-03T17:33:20.797Z,1.30
2023-07-03T17:35:50.667Z,1.30
2023-07-03T17:38:19.246Z,1.60
2023-07-03T17:43:23.575Z,1.77
2023-07-03T17:45:53.815Z,1.63
2023-07-03T17:48:23.383Z,1.40
2023-07-03T17:50:51.607Z,1.45
2023-07-03T17:53:22.660Z,1.70
2023-07-03T17:55:51.308Z,1.80
2023-07-03T17:58:22.859Z,1.58
2023-07-03T18:00:52.702Z,1.33
2023-07-03T18:03:20.955Z,1.60
2023-07-03T18:08:17.287Z,1.60
2023-07-03T18:10:45.471Z,1.77
2023-07-03T18:13:13.950Z,1.50
2023-07-03T18:15:49.574Z,1.50
2023-07-03T18:18:20.799Z,1.65
2023-07-03T18:20:49.242Z,1.52
2023-07-03T18:23:18.495Z,1.48
2023-07-03T18:25:47.952Z,1.60
2023-07-03T18:28:17.730Z,1.63
2023-07-03T18:30:47.658Z,1.60
2023-07-03T18:33:18.585Z,1.60
2023-07-03T18:35:46.567Z,1.50
2023-07-03T18:38:14.629Z,1.63
2023-07-03T18:40:45.908Z,1.65
2023-07-03T18:43:14.106Z,1.40
2023-07-03T18:50:45.133Z,1.70
2023-07-03T18:53:13.156Z,1.45
2023-07-03T18:55:47.126Z,1.70
2023-07-03T18:58:22.435Z,1.48
2023-07-03T19:00:50.741Z,1.60
2023-07-03T19:05:56.194Z,1.67
2023-07-03T19:08:24.457Z,2.05
2023-07-03T19:10:54.188Z,1.90
2023-07-03T19:13:22.431Z,1.65
2023-07-03T19:15:52.502Z,1.67
2023-07-03T19:18:22.168Z,1.60
2023-07-03T19:20:50.141Z,1.80
2023-07-03T19:23:18.509Z,1.88
2023-07-03T19:25:53.354Z,1.55
2023-07-03T19:28:21.731Z,1.70
2023-07-03T19:30:54.089Z,1.80
2023-07-03T19:33:23.509Z,1.58
2023-07-03T19:35:51.831Z,1.70
2023-07-03T19:38:20.189Z,1.90
2023-07-03T19:40:50.472Z,2.20
2023-07-03T19:43:22.327Z,2.10
2023-07-03T19:45:50.773Z,2.40
2023-07-03T19:48:19.194Z,2.45
2023-07-03T19:50:49.190Z,2.30
2023-07-03T19:53:17.260Z,2.30
2023-07-03T19:55:45.692Z,1.75
2023-07-03T20:00:41.534Z,1.90
2023-07-03T20:03:11.495Z,1.70
2023-07-03T20:05:42.806Z,1.77
2023-07-03T20:08:12.313Z,1.60
2023-07-03T20:10:40.750Z,1.33
2023-07-03T20:15:41.986Z,1.73
2023-07-03T20:18:10.091Z,1.63
2023-07-03T20:21:03.840Z,1.40
2023-07-03T20:23:38.787Z,1.42
2023-07-03T20:26:10.417Z,1.60
2023-07-03T20:28:38.532Z,1.60
2023-07-03T20:31:09.326Z,1.33
2023-07-03T20:33:37.326Z,1.85
2023-07-03T20:36:09.712Z,1.90
2023-07-03T20:38:39.808Z,1.98
2023-07-03T20:41:11.730Z,1.60
2023-07-03T20:43:41.150Z,1.80
2023-07-03T20:46:12.044Z,1.63
2023-07-03T20:48:40.683Z,1.50
2023-07-03T20:51:22.302Z,1.70
2023-07-03T20:54:10.651Z,1.83
2023-07-03T20:56:43.129Z,1.77
2023-07-03T20:59:14.199Z,1.90
2023-07-03T21:01:45.665Z,1.80
2023-07-03T21:04:13.651Z,1.70
2023-07-03T21:06:41.827Z,1.73
2023-07-03T21:09:11.552Z,2.10
2023-07-03T21:11:43.899Z,1.90
2023-07-03T21:14:13.487Z,2.05
2023-07-03T21:16:44.472Z,2.20
2023-07-03T21:19:17.126Z,1.67
2023-07-03T21:21:47.489Z,1.70
2023-07-03T21:24:26.938Z,1.73
2023-07-03T21:26:55.555Z,1.40
2023-07-03T21:29:23.519Z,2.22
2023-07-03T21:31:54.377Z,2.25
2023-07-03T21:34:24.931Z,1.67
2023-07-03T21:36:52.882Z,1.75
2023-07-03T21:39:22.265Z,1.70
2023-07-03T21:41:50.228Z,1.40
2023-07-03T21:44:19.241Z,1.70
2023-07-03T21:46:47.346Z,1.60
2023-07-03T21:49:17.282Z,1.85
2023-07-03T21:51:45.399Z,1.70
2023-07-03T21:54:13.404Z,1.50
2023-07-03T21:56:43.395Z,1.35
2023-07-03T21:59:12.683Z,1.80
2023-07-03T22:01:43.144Z,1.50
2023-07-03T22:04:11.933Z,1.52
2023-07-03T22:06:40.174Z,1.73
2023-07-03T22:09:08.127Z,1.40
2023-07-03T22:11:36.429Z,1.70
2023-07-03T22:14:08.084Z,1.50
2023-07-03T22:16:36.691Z,1.35
2023-07-03T22:19:06.872Z,1.98
2023-07-03T22:21:36.059Z,1.73
2023-07-03T22:24:04.171Z,1.30
2023-07-03T22:26:32.168Z,1.38
2023-07-03T22:29:00.357Z,1.40
2023-07-03T22:31:40.615Z,1.08
2023-07-03T22:34:08.914Z,1.40
2023-07-03T22:36:39.257Z,1.10
2023-07-03T22:39:10.243Z,1.25
2023-07-03T22:41:38.199Z,1.30
2023-07-03T22:44:09.034Z,1.70
2023-07-03T22:46:41.373Z,1.17
2023-07-03T22:49:23.138Z,1.25
2023-07-03T22:51:53.199Z,1.48
2023-07-03T22:54:22.650Z,1.10
2023-07-03T22:56:50.829Z,0.98
2023-07-03T22:59:18.788Z,1.30
2023-07-03T23:01:49.292Z,1.10
2023-07-03T23:04:18.298Z,1.30
2023-07-03T23:06:48.504Z,2.35
2023-07-03T23:09:17.844Z,1.20
2023-07-03T23:11:46.017Z,1.40
2023-07-03T23:14:16.125Z,1.20
2023-07-03T23:16:44.996Z,1.00
2023-07-03T23:19:14.423Z,1.10
2023-07-03T23:21:42.461Z,1.42
2023-07-03T23:24:10.929Z,1.42
2023-07-03T23:29:08.861Z,1.10
2023-07-03T23:31:39.836Z,1.20
2023-07-03T23:34:08.013Z,1.20
2023-07-03T23:36:37.344Z,1.23
2023-07-03T23:39:06.130Z,1.17
2023-07-03T23:41:34.084Z,1.23
2023-07-03T23:44:02.190Z,1.00
2023-07-03T23:46:30.241Z,1.10
2023-07-03T23:48:58.594Z,1.23
2023-07-03T23:51:26.593Z,1.23
2023-07-03T23:53:55.920Z,1.20
2023-07-03T23:56:24.334Z,1.38
